createdAt,value
2023-03-15T00:00:29.747Z,99473.13
2023-03-15T00:01:33.199Z,99471.97
2023-03-15T00:02:38.152Z,99479.72
2023-03-15T00:03:44.697Z,99480.59
2023-03-15T00:04:47.462Z,99478.94
2023-03-15T00:05:52.774Z,99483.63
2023-03-15T00:06:56.936Z,99473.00
2023-03-15T00:08:01.271Z,99480.81
2023-03-15T00:09:06.732Z,99472.38
2023-03-15T00:10:13.963Z,99477.94
2023-03-15T00:11:18.030Z,99480.69
2023-03-15T00:12:25.271Z,99473.97
2023-03-15T00:13:29.105Z,99478.72
2023-03-15T00:14:34.669Z,99469.72
2023-03-15T00:15:49.398Z,99475.19
2023-03-15T00:16:57.043Z,99473.22
2023-03-15T00:18:03.519Z,99481.84
2023-03-15T00:19:08.119Z,99484.88
2023-03-15T00:20:24.987Z,99493.25
2023-03-15T00:21:30.359Z,99477.19
2023-03-15T00:22:34.703Z,99477.25
2023-03-15T00:23:37.077Z,99475.59
2023-03-15T00:24:40.811Z,99478.06
2023-03-15T00:25:49.032Z,99468.97
2023-03-15T00:26:52.561Z,99474.81
2023-03-15T00:28:01.611Z,99476.56
2023-03-15T00:29:08.275Z,99472.88
2023-03-15T00:30:12.585Z,99474.16
2023-03-15T00:31:21.933Z,99471.72
2023-03-15T00:32:27.969Z,99485.13
2023-03-15T00:33:35.244Z,99475.69
2023-03-15T00:34:42.512Z,99480.81
2023-03-15T00:35:46.165Z,99483.06
2023-03-15T00:36:56.700Z,99473.16
2023-03-15T00:38:02.500Z,99475.97
2023-03-15T00:39:07.431Z,99475.50
2023-03-15T00:40:13.792Z,99474.03
2023-03-15T00:41:19.300Z,99472.88
2023-03-15T00:42:22.663Z,99472.44
2023-03-15T00:43:24.894Z,99481.41
2023-03-15T00:44:28.263Z,99481.03
2023-03-15T00:45:31.864Z,99468.50
2023-03-15T00:46:34.080Z,99478.59
2023-03-15T00:47:36.674Z,99476.78
2023-03-15T00:48:39.998Z,99476.34
2023-03-15T00:49:43.407Z,99473.47
2023-03-15T00:50:45.760Z,99475.44
2023-03-15T00:51:48.841Z,99479.81
2023-03-15T00:52:59.043Z,99473.84
2023-03-15T00:54:04.586Z,99481.69
2023-03-15T00:55:14.043Z,99477.81
2023-03-15T00:56:27.325Z,99473.09
2023-03-15T00:57:33.570Z,99475.84
2023-03-15T00:58:38.851Z,99480.97
2023-03-15T00:59:41.325Z,99476.66
2023-03-15T01:00:43.641Z,99481.69
2023-03-15T01:01:46.749Z,99473.91
2023-03-15T01:02:52.473Z,99467.13
2023-03-15T01:03:56.083Z,99475.00
2023-03-15T01:05:01.936Z,99474.31
2023-03-15T01:06:09.618Z,99474.69
2023-03-15T01:07:12.825Z,99476.34
2023-03-15T01:08:15.470Z,99472.69
2023-03-15T01:09:20.740Z,99476.50
2023-03-15T01:10:22.785Z,99476.13
2023-03-15T01:11:30.483Z,99481.69
2023-03-15T01:12:35.450Z,99480.53
2023-03-15T01:13:45.240Z,99463.41
2023-03-15T01:14:50.552Z,99468.41
2023-03-15T01:15:55.851Z,99483.34
2023-03-15T01:16:58.693Z,99471.88
2023-03-15T01:18:01.070Z,99466.03
2023-03-15T01:19:04.807Z,99478.94
2023-03-15T01:20:10.770Z,99464.03
2023-03-15T01:21:16.349Z,99467.47
2023-03-15T01:22:21.469Z,99469.00
2023-03-15T01:23:24.428Z,99470.22
2023-03-15T01:24:27.671Z,99470.94
2023-03-15T01:25:37.661Z,99477.16
2023-03-15T01:26:40.412Z,99489.22
2023-03-15T01:27:51.414Z,99471.31
2023-03-15T01:28:58.071Z,99470.16
2023-03-15T01:30:02.060Z,99472.88
2023-03-15T01:31:07.688Z,99483.00
2023-03-15T01:32:10.889Z,99477.44
2023-03-15T01:33:17.386Z,99468.84
2023-03-15T01:34:29.224Z,99465.69
2023-03-15T01:35:35.348Z,99475.84
2023-03-15T01:36:39.329Z,99471.97
2023-03-15T01:37:50.552Z,99464.97
2023-03-15T01:38:56.626Z,99467.28
2023-03-15T01:40:12.645Z,99466.53
2023-03-15T01:41:16.413Z,99465.69
2023-03-15T01:42:22.452Z,99453.06
2023-03-15T01:43:29.518Z,99456.19
2023-03-15T01:44:55.645Z,99467.94
2023-03-15T01:46:06.822Z,99463.25
2023-03-15T01:47:13.791Z,99467.16
2023-03-15T01:48:16.783Z,99475.72
2023-03-15T01:49:31.443Z,99465.25
2023-03-15T01:50:36.266Z,99464.81
2023-03-15T01:51:53.440Z,99474.22
2023-03-15T01:52:56.531Z,99463.25
2023-03-15T01:54:26.133Z,99464.81
2023-03-15T01:55:30.110Z,99464.19
2023-03-15T01:56:54.259Z,99462.22
2023-03-15T01:58:00.776Z,99465.56
2023-03-15T01:59:11.871Z,99473.03
2023-03-15T02:00:20.182Z,99473.91
2023-03-15T02:01:37.818Z,99464.81
2023-03-15T02:02:51.586Z,99470.59
2023-03-15T02:04:04.947Z,99472.69
2023-03-15T02:05:19.724Z,99476.97
2023-03-15T02:06:24.468Z,99472.78
2023-03-15T02:07:35.754Z,99461.81
2023-03-15T02:08:45.710Z,99484.22
2023-03-15T02:10:01.980Z,99469.72
2023-03-15T02:11:07.583Z,99472.63
2023-03-15T02:12:12.066Z,99470.59
2023-03-15T02:13:25.592Z,99479.97
2023-03-15T02:14:30.274Z,99474.63
2023-03-15T02:15:39.207Z,99483.16
2023-03-15T02:16:44.416Z,99472.31
2023-03-15T02:17:51.120Z,99475.75
2023-03-15T02:18:58.766Z,99482.13
2023-03-15T02:20:05.371Z,99488.78
2023-03-15T02:21:29.768Z,99484.88
2023-03-15T02:22:57.357Z,99476.34
2023-03-15T02:24:25.964Z,99481.75
2023-03-15T02:26:03.974Z,99477.94
2023-03-15T02:27:06.657Z,99482.19
2023-03-15T02:28:15.978Z,99483.50
2023-03-15T02:29:21.632Z,99487.47
2023-03-15T02:30:29.201Z,99483.50
2023-03-15T02:31:38.366Z,99484.28
2023-03-15T02:32:41.444Z,99488.03
2023-03-15T02:33:49.312Z,99483.13
2023-03-15T02:34:57.623Z,99488.31
2023-03-15T02:36:28.780Z,99480.88
2023-03-15T02:37:38.228Z,99490.34
2023-03-15T02:38:43.122Z,99480.31
2023-03-15T02:39:47.960Z,99483.97
2023-03-15T02:40:55.758Z,99484.72
2023-03-15T02:42:00.183Z,99485.56
2023-03-15T02:43:14.220Z,99485.19
2023-03-15T02:44:37.501Z,99477.34
2023-03-15T02:45:44.780Z,99467.22
2023-03-15T02:46:52.456Z,99489.16
2023-03-15T02:47:58.088Z,99479.00
2023-03-15T02:49:03.218Z,99486.00
2023-03-15T02:50:08.617Z,99472.69
2023-03-15T02:51:27.697Z,99486.06
2023-03-15T02:52:32.516Z,99479.00
2023-03-15T02:53:38.308Z,99484.41
2023-03-15T02:54:43.492Z,99471.13
2023-03-15T02:55:49.574Z,99477.41
2023-03-15T02:56:57.603Z,99496.22
2023-03-15T02:58:02.841Z,99486.72
2023-03-15T02:59:06.555Z,99486.06
2023-03-15T03:00:16.014Z,99493.78
2023-03-15T03:01:21.015Z,99493.09
2023-03-15T03:02:24.382Z,99487.47
2023-03-15T03:03:28.840Z,99489.91
2023-03-15T03:04:33.690Z,99476.63
2023-03-15T03:05:40.848Z,99496.91
2023-03-15T03:06:53.790Z,99486.00
2023-03-15T03:08:02.964Z,99497.81
2023-03-15T03:09:07.777Z,99492.19
2023-03-15T03:10:12.477Z,99496.84
2023-03-15T03:11:29.910Z,99503.91
2023-03-15T03:12:33.477Z,99497.28
2023-03-15T03:13:39.138Z,99490.59
2023-03-15T03:14:43.509Z,99496.00
2023-03-15T03:15:59.047Z,99503.91
2023-03-15T03:17:06.117Z,99493.78
2023-03-15T03:18:17.053Z,99494.16
2023-03-15T03:19:26.800Z,99494.59
2023-03-15T03:20:30.906Z,99492.13
2023-03-15T03:21:36.122Z,99492.88
2023-03-15T03:22:41.296Z,99496.69
2023-03-15T03:23:47.753Z,99490.53
2023-03-15T03:24:53.688Z,99494.81
2023-03-15T03:25:59.264Z,99490.78
2023-03-15T03:27:02.836Z,99493.97
2023-03-15T03:28:08.983Z,99499.88
2023-03-15T03:29:14.861Z,99507.97
2023-03-15T03:30:22.550Z,99492.81
2023-03-15T03:31:33.993Z,99499.88
2023-03-15T03:32:44.995Z,99484.00
2023-03-15T03:33:49.256Z,99495.84
2023-03-15T03:34:54.526Z,99491.97
2023-03-15T03:36:07.430Z,99495.41
2023-03-15T03:37:10.647Z,99483.16
2023-03-15T03:38:29.625Z,99487.03
2023-03-15T03:39:35.051Z,99494.25
2023-03-15T03:40:40.523Z,99491.75
2023-03-15T03:41:43.433Z,99483.84
2023-03-15T03:42:47.513Z,99490.78
2023-03-15T03:44:14.973Z,99494.88
2023-03-15T03:45:18.864Z,99494.41
2023-03-15T03:46:23.693Z,99490.16
2023-03-15T03:47:28.591Z,99501.13
2023-03-15T03:48:32.869Z,99498.75
2023-03-15T03:49:40.307Z,99490.16
2023-03-15T03:50:42.626Z,99493.53
2023-03-15T03:51:44.637Z,99499.81
2023-03-15T03:52:47.234Z,99495.41
2023-03-15T03:53:56.050Z,99498.31
2023-03-15T03:54:58.479Z,99502.97
2023-03-15T03:56:04.540Z,99496.19
2023-03-15T03:57:08.014Z,99500.03
2023-03-15T03:58:11.356Z,99502.50
2023-03-15T03:59:19.838Z,99497.00
2023-03-15T04:00:32.370Z,99504.78
2023-03-15T04:01:35.207Z,99494.56
2023-03-15T04:02:40.029Z,99500.91
2023-03-15T04:03:42.803Z,99500.19
2023-03-15T04:04:52.877Z,99500.47
2023-03-15T04:05:57.944Z,99498.53
2023-03-15T04:07:00.287Z,99496.56
2023-03-15T04:08:10.301Z,99512.59
2023-03-15T04:09:16.729Z,99509.34
2023-03-15T04:10:29.166Z,99502.03
2023-03-15T04:11:31.776Z,99504.41
2023-03-15T04:12:45.653Z,99503.78
2023-03-15T04:13:50.776Z,99502.97
2023-03-15T04:14:55.130Z,99514.75
2023-03-15T04:16:02.597Z,99517.78
2023-03-15T04:17:14.613Z,99518.19
2023-03-15T04:18:28.022Z,99508.81
2023-03-15T04:19:31.329Z,99505.09
2023-03-15T04:20:34.924Z,99513.31
2023-03-15T04:21:38.490Z,99509.41
2023-03-15T04:22:55.006Z,99514.59
2023-03-15T04:24:07.635Z,99514.22
2023-03-15T04:25:31.282Z,99503.94
2023-03-15T04:26:58.605Z,99511.78
2023-03-15T04:28:18.210Z,99515.38
2023-03-15T04:29:30.014Z,99513.09
2023-03-15T04:30:59.248Z,99512.72
2023-03-15T04:32:12.976Z,99515.91
2023-03-15T04:33:44.347Z,99510.84
2023-03-15T04:35:04.614Z,99509.63
2023-03-15T04:36:24.226Z,99523.28
2023-03-15T04:37:53.025Z,99519.88
2023-03-15T04:39:13.557Z,99524.34
2023-03-15T04:40:39.600Z,99521.16
2023-03-15T04:41:55.942Z,99520.22
2023-03-15T04:43:27.024Z,99524.13
2023-03-15T04:44:42.316Z,99527.69
2023-03-15T04:46:06.522Z,99521.06
2023-03-15T04:47:29.694Z,99537.63
2023-03-15T04:48:43.580Z,99534.31
2023-03-15T04:50:03.487Z,99538.28
2023-03-15T04:51:17.173Z,99543.28
2023-03-15T04:52:28.603Z,99532.78
2023-03-15T04:53:52.287Z,99543.72
2023-03-15T04:55:13.688Z,99534.47
2023-03-15T04:56:45.196Z,99531.72
2023-03-15T04:58:19.485Z,99535.69
2023-03-15T04:59:51.475Z,99538.59
2023-03-15T05:01:24.058Z,99532.09
2023-03-15T05:02:43.885Z,99534.06
2023-03-15T05:04:14.143Z,99544.28
2023-03-15T05:05:38.225Z,99540.31
2023-03-15T05:06:53.193Z,99536.72
2023-03-15T05:08:26.303Z,99540.34
2023-03-15T05:10:02.106Z,99544.16
2023-03-15T05:11:16.755Z,99556.84
2023-03-15T05:13:01.305Z,99547.06
2023-03-15T05:14:23.621Z,99540.16
2023-03-15T05:16:03.553Z,99550.28
2023-03-15T05:17:16.958Z,99551.63
2023-03-15T05:18:49.388Z,99550.53
2023-03-15T05:20:12.207Z,99560.63
2023-03-15T05:21:33.452Z,99559.91
2023-03-15T05:22:55.670Z,99566.41
2023-03-15T05:24:23.171Z,99565.78
2023-03-15T05:25:55.466Z,99564.00
2023-03-15T05:27:18.667Z,99579.09
2023-03-15T05:28:45.822Z,99587.81
2023-03-15T05:30:11.870Z,99575.13
2023-03-15T05:31:37.576Z,99580.22
2023-03-15T05:33:01.513Z,99579.06
2023-03-15T05:34:35.766Z,99576.16
2023-03-15T05:35:57.477Z,99587.25
2023-03-15T05:37:33.448Z,99588.41
2023-03-15T05:39:06.982Z,99577.44
2023-03-15T05:40:34.348Z,99574.31
2023-03-15T05:41:52.588Z,99584.88
2023-03-15T05:43:13.854Z,99574.22
2023-03-15T05:44:33.052Z,99581.41
2023-03-15T05:45:50.863Z,99576.31
2023-03-15T05:47:27.035Z,99580.00
2023-03-15T05:48:56.088Z,99588.53
2023-03-15T05:50:25.014Z,99593.31
2023-03-15T05:53:31.223Z,99591.41
2023-03-15T05:55:17.354Z,99598.81
2023-03-15T05:56:41.787Z,99605.97
2023-03-15T05:58:07.912Z,99592.38
2023-03-15T05:59:14.205Z,99600.81
2023-03-15T06:00:44.890Z,99604.81
2023-03-15T06:02:01.654Z,99593.09
2023-03-15T06:03:12.158Z,99604.94
2023-03-15T06:04:30.880Z,99605.81
2023-03-15T06:05:34.929Z,99602.72
2023-03-15T06:06:39.809Z,99608.50
2023-03-15T06:07:45.364Z,99607.28
2023-03-15T06:08:52.804Z,99613.09
2023-03-15T06:09:55.329Z,99616.53
2023-03-15T06:10:58.660Z,99610.97
2023-03-15T06:12:01.901Z,99607.72
2023-03-15T06:13:04.956Z,99612.25
2023-03-15T06:14:09.775Z,99606.47
2023-03-15T06:15:22.732Z,99619.66
2023-03-15T06:16:27.805Z,99606.88
2023-03-15T06:17:35.586Z,99606.56
2023-03-15T06:18:38.254Z,99608.59
2023-03-15T06:19:40.442Z,99618.38
2023-03-15T06:20:49.017Z,99608.81
2023-03-15T06:21:54.307Z,99616.22
2023-03-15T06:23:08.811Z,99612.78
2023-03-15T06:24:20.061Z,99615.66
2023-03-15T06:25:28.084Z,99624.56
2023-03-15T06:26:32.827Z,99610.63
2023-03-15T06:27:38.590Z,99610.78
2023-03-15T06:28:45.338Z,99622.34
2023-03-15T06:29:47.996Z,99613.47
2023-03-15T06:30:51.810Z,99624.97
2023-03-15T06:31:57.366Z,99632.97
2023-03-15T06:33:01.337Z,99623.88
2023-03-15T06:34:05.539Z,99624.50
2023-03-15T06:35:10.333Z,99623.19
2023-03-15T06:36:14.736Z,99634.94
2023-03-15T06:37:28.853Z,99635.25
2023-03-15T06:38:34.728Z,99632.84
2023-03-15T06:39:37.823Z,99630.19
2023-03-15T06:40:40.124Z,99622.88
2023-03-15T06:41:42.479Z,99633.16
2023-03-15T06:42:49.717Z,99616.78
2023-03-15T06:43:53.657Z,99623.53
2023-03-15T06:44:55.827Z,99633.72
2023-03-15T06:46:00.188Z,99632.44
2023-03-15T06:47:03.067Z,99636.56
2023-03-15T06:48:05.167Z,99631.66
2023-03-15T06:49:07.195Z,99640.00
2023-03-15T06:50:10.083Z,99647.81
2023-03-15T06:51:12.219Z,99638.16
2023-03-15T06:52:14.204Z,99640.69
2023-03-15T06:53:16.390Z,99636.06
2023-03-15T06:54:18.434Z,99639.22
2023-03-15T06:55:22.297Z,99645.38
2023-03-15T06:56:24.479Z,99631.94
2023-03-15T06:57:26.470Z,99644.69
2023-03-15T06:58:28.401Z,99633.13
2023-03-15T06:59:30.470Z,99638.31
2023-03-15T07:00:32.534Z,99629.91
2023-03-15T07:01:34.523Z,99622.44
2023-03-15T07:02:37.780Z,99623.66
2023-03-15T07:03:40.574Z,99628.53
2023-03-15T07:04:44.679Z,99636.06
2023-03-15T07:05:46.781Z,99645.63
2023-03-15T07:06:48.787Z,99643.25
2023-03-15T07:07:50.691Z,99632.16
2023-03-15T07:08:52.752Z,99642.44
2023-03-15T07:09:55.303Z,99641.28
2023-03-15T07:11:02.493Z,99630.22
2023-03-15T07:12:05.169Z,99628.59
2023-03-15T07:13:07.438Z,99632.84
2023-03-15T07:14:09.537Z,99629.94
2023-03-15T07:15:12.323Z,99629.66
2023-03-15T07:16:14.596Z,99625.63
2023-03-15T07:17:19.147Z,99641.50
2023-03-15T07:18:24.193Z,99633.63
2023-03-15T07:19:26.167Z,99637.66
2023-03-15T07:20:28.266Z,99625.00
2023-03-15T07:21:30.225Z,99629.41
2023-03-15T07:22:33.484Z,99632.53
2023-03-15T07:23:35.476Z,99628.19
2023-03-15T07:24:37.630Z,99634.56
2023-03-15T07:25:53.875Z,99634.56
2023-03-15T07:26:57.117Z,99641.94
2023-03-15T07:27:59.366Z,99643.09
2023-03-15T07:29:04.265Z,99642.66
2023-03-15T07:30:09.980Z,99647.13
2023-03-15T07:31:12.850Z,99643.97
2023-03-15T07:32:15.211Z,99659.72
2023-03-15T07:33:28.531Z,99649.06
2023-03-15T07:34:30.816Z,99649.31
2023-03-15T07:35:34.246Z,99654.81
2023-03-15T07:36:36.372Z,99657.06
2023-03-15T07:37:39.705Z,99659.56
2023-03-15T07:38:48.899Z,99657.38
2023-03-15T07:39:50.990Z,99651.19
2023-03-15T07:40:54.668Z,99654.25
2023-03-15T07:41:56.795Z,99662.88
2023-03-15T07:43:06.743Z,99658.13
2023-03-15T07:44:16.161Z,99655.00
2023-03-15T07:45:18.255Z,99656.97
2023-03-15T07:46:20.166Z,99669.69
2023-03-15T07:47:22.207Z,99670.75
2023-03-15T07:48:26.990Z,99661.28
2023-03-15T07:49:28.860Z,99666.91
2023-03-15T07:50:30.747Z,99665.78
2023-03-15T07:51:32.820Z,99676.25
2023-03-15T07:52:36.094Z,99672.84
2023-03-15T07:53:38.020Z,99673.72
2023-03-15T07:54:39.941Z,99664.19
2023-03-15T07:55:42.029Z,99676.03
2023-03-15T07:56:43.944Z,99673.31
2023-03-15T07:57:47.226Z,99666.97
2023-03-15T07:58:50.650Z,99673.72
2023-03-15T07:59:53.600Z,99673.31
2023-03-15T08:00:56.537Z,99671.72
2023-03-15T08:02:04.112Z,99675.69
2023-03-15T08:03:07.243Z,99695.47
2023-03-15T08:04:09.176Z,99689.91
2023-03-15T08:05:11.161Z,99685.97
2023-03-15T08:06:13.200Z,99697.03
2023-03-15T08:07:14.954Z,99679.59
2023-03-15T08:08:17.317Z,99692.22
2023-03-15T08:09:19.215Z,99679.25
2023-03-15T08:10:21.152Z,99683.22
2023-03-15T08:11:23.051Z,99695.81
2023-03-15T08:12:25.604Z,99695.47
2023-03-15T08:13:27.623Z,99697.00
2023-03-15T08:14:31.734Z,99703.97
2023-03-15T08:15:33.634Z,99685.84
2023-03-15T08:16:42.378Z,99696.97
2023-03-15T08:17:44.530Z,99692.56
2023-03-15T08:18:46.757Z,99698.13
2023-03-15T08:19:51.759Z,99686.22
2023-03-15T08:20:53.660Z,99698.41
2023-03-15T08:21:55.645Z,99682.16
2023-03-15T08:22:57.797Z,99689.66
2023-03-15T08:24:00.933Z,99682.16
2023-03-15T08:25:04.677Z,99693.56
2023-03-15T08:26:06.688Z,99680.88
2023-03-15T08:27:08.712Z,99682.00
2023-03-15T08:28:11.653Z,99669.06
2023-03-15T08:29:14.003Z,99678.63
2023-03-15T08:30:17.392Z,99680.88
2023-03-15T08:31:19.539Z,99674.50
2023-03-15T08:32:21.839Z,99674.50
2023-03-15T08:33:24.050Z,99671.06
2023-03-15T08:34:26.144Z,99674.69
2023-03-15T08:35:28.213Z,99681.31
2023-03-15T08:36:32.817Z,99673.97
2023-03-15T08:37:35.079Z,99672.19
2023-03-15T08:38:37.863Z,99671.91
2023-03-15T08:39:40.184Z,99684.13
2023-03-15T08:40:42.879Z,99674.69
2023-03-15T08:41:45.770Z,99671.16
2023-03-15T08:42:47.717Z,99689.47
2023-03-15T08:43:49.731Z,99681.53
2023-03-15T08:44:51.704Z,99689.09
2023-03-15T08:46:00.983Z,99675.97
2023-03-15T08:47:03.784Z,99669.81
2023-03-15T08:48:05.962Z,99675.00
2023-03-15T08:49:07.917Z,99678.03
2023-03-15T08:50:12.889Z,99691.47
2023-03-15T08:51:15.070Z,99688.41
2023-03-15T08:52:18.251Z,99679.16
2023-03-15T08:53:20.494Z,99667.31
2023-03-15T08:54:23.639Z,99680.81
2023-03-15T08:55:25.733Z,99682.50
2023-03-15T08:56:27.710Z,99690.28
2023-03-15T08:57:29.991Z,99679.25
2023-03-15T08:58:32.001Z,99680.84
2023-03-15T08:59:34.016Z,99675.69
2023-03-15T09:00:36.185Z,99676.19
2023-03-15T09:01:40.531Z,99679.66
2023-03-15T09:02:42.595Z,99675.25
2023-03-15T09:03:44.711Z,99672.16
2023-03-15T09:04:46.771Z,99678.16
2023-03-15T09:05:49.065Z,99672.63
2023-03-15T09:06:51.073Z,99680.59
2023-03-15T09:07:55.907Z,99673.81
2023-03-15T09:08:58.148Z,99672.28
2023-03-15T09:10:00.157Z,99671.31
2023-03-15T09:11:02.445Z,99679.66
2023-03-15T09:12:04.873Z,99671.44
2023-03-15T09:13:06.985Z,99679.28
2023-03-15T09:14:09.172Z,99675.94
2023-03-15T09:15:12.448Z,99673.53
2023-03-15T09:16:15.188Z,99671.13
2023-03-15T09:17:17.181Z,99669.56
2023-03-15T09:18:21.034Z,99677.84
2023-03-15T09:19:22.999Z,99678.19
2023-03-15T09:20:28.374Z,99665.63
2023-03-15T09:21:31.883Z,99671.56
2023-03-15T09:22:39.469Z,99665.56
2023-03-15T09:23:44.190Z,99676.13
2023-03-15T09:24:46.332Z,99666.28
2023-03-15T09:25:49.092Z,99668.69
2023-03-15T09:26:51.011Z,99672.66
2023-03-15T09:27:53.206Z,99674.16
2023-03-15T09:28:56.861Z,99679.78
2023-03-15T09:29:59.029Z,99674.22
2023-03-15T09:31:04.590Z,99674.22
2023-03-15T09:32:06.752Z,99673.44
2023-03-15T09:33:09.467Z,99673.19
2023-03-15T09:34:11.564Z,99675.31
2023-03-15T09:35:16.485Z,99667.88
2023-03-15T09:36:18.539Z,99672.63
2023-03-15T09:37:22.037Z,99677.41
2023-03-15T09:38:24.259Z,99679.28
2023-03-15T09:39:26.285Z,99677.94
2023-03-15T09:40:35.204Z,99670.22
2023-03-15T09:41:51.148Z,99681.72
2023-03-15T09:43:01.570Z,99665.50
2023-03-15T09:44:27.819Z,99666.13
2023-03-15T09:46:18.679Z,99667.41
2023-03-15T09:47:39.170Z,99665.50
2023-03-15T09:48:59.206Z,99670.38
2023-03-15T09:50:10.369Z,99665.75
2023-03-15T09:51:15.394Z,99667.59
2023-03-15T09:52:40.331Z,99661.38
2023-03-15T09:54:06.583Z,99661.34
2023-03-15T09:55:18.862Z,99665.81
2023-03-15T09:56:27.353Z,99661.91
2023-03-15T09:58:03.405Z,99659.44
2023-03-15T09:59:06.956Z,99657.91
2023-03-15T10:00:14.714Z,99664.97
2023-03-15T10:01:18.271Z,99664.63
2023-03-15T10:02:30.281Z,99674.47
2023-03-15T10:03:36.262Z,99665.84
2023-03-15T10:04:40.688Z,99661.91
2023-03-15T10:05:52.045Z,99654.09
2023-03-15T10:06:56.875Z,99657.25
2023-03-15T10:07:59.094Z,99654.19
2023-03-15T10:09:10.879Z,99644.69
2023-03-15T10:10:24.693Z,99654.19
2023-03-15T10:11:47.268Z,99656.13
2023-03-15T10:13:27.287Z,99654.47
2023-03-15T10:14:44.883Z,99645.81
2023-03-15T10:16:08.300Z,99651.41
2023-03-15T10:17:15.920Z,99647.81
2023-03-15T10:18:34.112Z,99642.28
2023-03-15T10:19:36.036Z,99638.28
2023-03-15T10:20:44.714Z,99640.31
2023-03-15T10:22:16.092Z,99629.19
2023-03-15T10:23:37.006Z,99640.16
2023-03-15T10:25:02.551Z,99628.75
2023-03-15T10:26:13.871Z,99631.19
2023-03-15T10:27:20.483Z,99641.31
2023-03-15T10:28:25.907Z,99637.41
2023-03-15T10:29:28.854Z,99632.38
2023-03-15T10:30:33.596Z,99632.78
2023-03-15T10:31:44.536Z,99629.53
2023-03-15T10:32:59.727Z,99633.47
2023-03-15T10:34:02.327Z,99637.75
2023-03-15T10:35:15.029Z,99642.16
2023-03-15T10:36:18.821Z,99636.63
2023-03-15T10:37:24.049Z,99631.09
2023-03-15T10:38:26.970Z,99653.97
2023-03-15T10:39:29.317Z,99642.19
2023-03-15T10:40:52.002Z,99648.50
2023-03-15T10:41:54.074Z,99636.72
2023-03-15T10:42:58.227Z,99647.63
2023-03-15T10:44:06.394Z,99644.53
2023-03-15T10:45:24.355Z,99647.69
2023-03-15T10:46:26.679Z,99646.84
2023-03-15T10:47:28.645Z,99652.75
2023-03-15T10:48:36.041Z,99655.50
2023-03-15T10:49:41.518Z,99642.50
2023-03-15T10:50:43.554Z,99652.41
2023-03-15T10:51:47.685Z,99656.78
2023-03-15T10:52:51.433Z,99650.97
2023-03-15T10:54:07.322Z,99644.13
2023-03-15T10:55:26.218Z,99652.44
2023-03-15T10:56:31.023Z,99649.75
2023-03-15T10:57:39.920Z,99652.91
2023-03-15T10:58:50.828Z,99650.13
2023-03-15T11:00:06.868Z,99650.47
2023-03-15T11:01:23.486Z,99643.03
2023-03-15T11:02:26.458Z,99654.06
2023-03-15T11:03:29.838Z,99646.94
2023-03-15T11:04:34.330Z,99639.09
2023-03-15T11:05:45.789Z,99662.00
2023-03-15T11:06:59.219Z,99650.97
2023-03-15T11:08:01.520Z,99646.59
2023-03-15T11:09:25.525Z,99666.00
2023-03-15T11:10:33.631Z,99651.38
2023-03-15T11:11:59.190Z,99679.06
2023-03-15T11:13:17.772Z,99658.09
2023-03-15T11:14:20.043Z,99671.47
2023-03-15T11:15:22.054Z,99658.34
2023-03-15T11:16:24.038Z,99665.91
2023-03-15T11:17:30.798Z,99672.22
2023-03-15T11:18:55.539Z,99662.44
2023-03-15T11:20:10.104Z,99656.91
2023-03-15T11:21:19.820Z,99656.50
2023-03-15T11:22:22.311Z,99663.56
2023-03-15T11:23:28.805Z,99652.91
2023-03-15T11:24:33.624Z,99660.78
2023-03-15T11:25:35.760Z,99657.19
2023-03-15T11:26:39.756Z,99667.78
2023-03-15T11:27:43.566Z,99660.38
2023-03-15T11:28:53.183Z,99663.56
2023-03-15T11:29:58.413Z,99662.78
2023-03-15T11:31:02.056Z,99669.78
2023-03-15T11:32:17.975Z,99654.78
2023-03-15T11:33:45.253Z,99652.03
2023-03-15T11:34:51.829Z,99648.47
2023-03-15T11:35:57.713Z,99649.28
2023-03-15T11:37:11.606Z,99657.28
2023-03-15T11:38:30.529Z,99651.31
2023-03-15T11:39:45.471Z,99665.91
2023-03-15T11:40:53.883Z,99661.13
2023-03-15T11:42:11.104Z,99657.28
2023-03-15T11:43:19.816Z,99660.88
2023-03-15T11:44:42.948Z,99650.19
2023-03-15T11:45:53.662Z,99651.81
2023-03-15T11:47:47.532Z,99662.09
2023-03-15T11:49:04.931Z,99647.78
2023-03-15T11:50:11.887Z,99651.00
2023-03-15T11:51:14.466Z,99656.91
2023-03-15T11:52:31.005Z,99655.59
2023-03-15T11:54:10.415Z,99660.34
2023-03-15T11:55:30.885Z,99662.00
2023-03-15T11:56:46.512Z,99660.78
2023-03-15T11:57:49.801Z,99654.78
2023-03-15T11:59:13.177Z,99661.03
2023-03-15T12:00:35.704Z,99665.75
2023-03-15T12:01:38.558Z,99654.31
2023-03-15T12:02:50.445Z,99663.78
2023-03-15T12:04:24.760Z,99663.38
2023-03-15T12:06:04.510Z,99668.16
2023-03-15T12:07:18.947Z,99649.97
2023-03-15T12:08:42.023Z,99654.34
2023-03-15T12:10:03.335Z,99667.34
2023-03-15T12:11:34.032Z,99655.16
2023-03-15T12:12:37.140Z,99661.88
2023-03-15T12:13:53.165Z,99661.03
2023-03-15T12:15:05.497Z,99662.16
2023-03-15T12:16:07.870Z,99661.03
2023-03-15T12:17:24.862Z,99658.56
2023-03-15T12:18:44.048Z,99660.94
2023-03-15T12:19:46.466Z,99661.78
2023-03-15T12:21:12.485Z,99661.78
2023-03-15T12:22:17.744Z,99662.56
2023-03-15T12:23:30.121Z,99666.44
2023-03-15T12:24:38.691Z,99664.41
2023-03-15T12:25:55.357Z,99678.22
2023-03-15T12:27:04.094Z,99669.91
2023-03-15T12:28:10.964Z,99663.22
2023-03-15T12:29:24.174Z,99670.28
2023-03-15T12:30:33.821Z,99669.50
2023-03-15T12:31:55.134Z,99662.38
2023-03-15T12:32:57.810Z,99671.06
2023-03-15T12:34:01.556Z,99675.75
2023-03-15T12:35:16.413Z,99675.75
2023-03-15T12:36:28.189Z,99665.44
2023-03-15T12:37:45.244Z,99682.00
2023-03-15T12:39:15.204Z,99670.16
2023-03-15T12:40:24.071Z,99676.44
2023-03-15T12:41:47.714Z,99674.13
2023-03-15T12:42:49.704Z,99669.44
2023-03-15T12:43:52.526Z,99668.22
2023-03-15T12:44:55.325Z,99673.66
2023-03-15T12:46:01.423Z,99668.44
2023-03-15T12:47:05.690Z,99670.44
2023-03-15T12:48:12.926Z,99672.72
2023-03-15T12:49:33.941Z,99664.41
2023-03-15T12:50:53.152Z,99669.59
2023-03-15T12:52:09.948Z,99661.22
2023-03-15T12:53:30.955Z,99665.13
2023-03-15T12:54:59.220Z,99664.34
2023-03-15T12:56:54.296Z,99676.59
2023-03-15T12:57:58.182Z,99677.75
2023-03-15T12:59:25.917Z,99677.59
2023-03-15T13:00:33.977Z,99677.66
2023-03-15T13:01:37.404Z,99672.00
2023-03-15T13:02:49.990Z,99671.25
2023-03-15T13:03:59.786Z,99675.97
2023-03-15T13:05:36.388Z,99666.84
2023-03-15T13:07:03.167Z,99661.88
2023-03-15T13:08:33.225Z,99679.97
2023-03-15T13:10:20.701Z,99662.59
2023-03-15T13:11:23.031Z,99665.03
2023-03-15T13:12:38.090Z,99676.81
2023-03-15T13:14:03.370Z,99667.41
2023-03-15T13:15:29.305Z,99665.78
2023-03-15T13:17:07.144Z,99660.25
2023-03-15T13:18:18.775Z,99675.56
2023-03-15T13:19:27.625Z,99668.94
2023-03-15T13:20:46.567Z,99668.88
2023-03-15T13:21:59.923Z,99666.50
2023-03-15T13:23:29.054Z,99664.97
2023-03-15T13:24:44.972Z,99675.13
2023-03-15T13:26:08.578Z,99668.03
2023-03-15T13:27:33.050Z,99661.84
2023-03-15T13:28:49.596Z,99660.94
2023-03-15T13:29:55.831Z,99664.50
2023-03-15T13:31:02.151Z,99656.59
2023-03-15T13:32:24.129Z,99650.72
2023-03-15T13:33:32.501Z,99666.50
2023-03-15T13:34:35.517Z,99665.63
2023-03-15T13:35:46.171Z,99660.09
2023-03-15T13:36:54.823Z,99661.69
2023-03-15T13:38:08.183Z,99662.38
2023-03-15T13:39:17.872Z,99676.56
2023-03-15T13:40:20.062Z,99669.88
2023-03-15T13:41:29.846Z,99665.53